Time;durP1;ratioP1;P1;durP2;ratioP2;P2;SDS_P1;SDS_P2;PMS_P1;PMS_P2;Temp;Humidity;BMP_temperature;BMP_pressure;BME280_temperature;BME280_humidity;BME280_pressure;Samples;Min_cycle;Max_cycle;Signal;HPM_P1;HPM_P2
2023/09/21 00:00:16;;;;;;;4.07;1.95;;;19.00;99.90;;;;;;6274542;22;20434;-43
2023/09/21 00:02:49;;;;;;;4.95;2.03;;;19.00;99.90;;;;;;6274391;22;20047;-43
2023/09/21 00:05:20;;;;;;;5.93;2.53;;;19.00;99.90;;;;;;6274745;22;20015;-43
2023/09/21 00:07:46;;;;;;;2.60;2.10;;;19.00;99.90;;;;;;6272494;22;20024;-43
2023/09/21 00:10:12;;;;;;;2.50;1.90;;;19.00;99.90;;;;;;6275115;22;20011;-44
2023/09/21 00:12:39;;;;;;;4.60;1.80;;;19.00;99.90;;;;;;6274265;22;20011;-43
2023/09/21 00:15:06;;;;;;;3.63;2.15;;;19.00;99.90;;;;;;6274786;22;20038;-45
2023/09/21 00:17:34;;;;;;;4.45;2.53;;;19.00;99.90;;;;;;6272933;22;20016;-43
2023/09/21 00:20:10;;;;;;;5.47;2.10;;;19.10;99.90;;;;;;6272566;22;20105;-43
2023/09/21 00:22:37;;;;;;;4.75;2.10;;;19.10;99.90;;;;;;6271372;22;20102;-46
2023/09/21 00:25:07;;;;;;;4.10;1.88;;;19.10;99.90;;;;;;6274720;22;20015;-43
2023/09/21 00:27:33;;;;;;;6.40;2.03;;;19.10;99.90;;;;;;6274878;22;20015;-44
2023/09/21 00:30:01;;;;;;;4.32;2.38;;;19.20;99.90;;;;;;6271787;22;20035;-43
2023/09/21 00:32:27;;;;;;;2.72;1.90;;;19.10;99.90;;;;;;6273422;22;20022;-43
2023/09/21 00:34:53;;;;;;;4.00;2.08;;;19.10;99.90;;;;;;6273163;22;20439;-44
2023/09/21 00:37:19;;;;;;;3.72;1.92;;;19.00;99.90;;;;;;6274487;22;20106;-43
2023/09/21 00:39:47;;;;;;;4.03;2.17;;;19.00;99.90;;;;;;6271912;22;20023;-45
2023/09/21 00:42:12;;;;;;;;;;;19.00;99.90;;;;;;6274936;22;20047;-43
2023/09/21 00:44:39;;;;;;;3.13;1.80;;;19.00;99.90;;;;;;6274453;22;20357;-43
2023/09/21 00:47:06;;;;;;;4.88;2.20;;;19.00;99.90;;;;;;6273925;22;20103;-45
2023/09/21 00:49:32;;;;;;;2.97;1.80;;;19.00;99.90;;;;;;6272361;22;20408;-44
2023/09/21 00:51:58;;;;;;;5.57;1.90;;;19.00;99.90;;;;;;6274013;22;20023;-44
2023/09/21 00:54:25;;;;;;;2.40;1.92;;;19.00;99.90;;;;;;6273607;22;20020;-43
2023/09/21 00:56:52;;;;;;;3.80;2.22;;;19.00;99.90;;;;;;6273343;22;20020;-45
2023/09/21 00:59:21;;;;;;;5.25;1.90;;;19.00;99.90;;;;;;6273782;22;20095;-41
2023/09/21 01:01:48;;;;;;;1.90;1.67;;;19.00;99.90;;;;;;6271599;22;20016;-42
2023/09/21 01:04:14;;;;;;;4.20;1.70;;;19.00;99.90;;;;;;6272545;22;20065;-42
2023/09/21 01:06:44;;;;;;;4.00;1.90;;;19.00;99.90;;;;;;6274125;22;20016;-42
2023/09/21 01:09:16;;;;;;;4.95;2.03;;;19.00;99.90;;;;;;6275520;22;20394;-41
2023/09/21 01:11:41;;;;;;;3.92;1.77;;;19.00;99.90;;;;;;6276310;22;20012;-44
2023/09/21 01:14:07;;;;;;;3.20;2.10;;;19.00;99.90;;;;;;6276162;22;20087;-41
2023/09/21 01:16:33;;;;;;;3.60;1.80;;;19.00;99.90;;;;;;6276720;22;20019;-44
2023/09/21 01:18:59;;;;;;;5.30;1.83;;;18.90;99.90;;;;;;6274894;22;20023;-44
2023/09/21 01:21:35;;;;;;;2.55;1.80;;;18.90;99.90;;;;;;6276318;22;20077;-43
2023/09/21 01:24:01;;;;;;;3.63;1.90;;;18.80;99.90;;;;;;6274516;22;20007;-43
2023/09/21 01:26:27;;;;;;;4.07;1.90;;;18.80;99.90;;;;;;6275549;22;20076;-43
2023/09/21 01:28:56;;;;;;;2.28;1.85;;;18.80;99.90;;;;;;6275646;22;20046;-43
2023/09/21 01:31:22;;;;;;;2.97;1.92;;;18.60;99.90;;;;;;6275102;22;20096;-45
2023/09/21 01:33:48;;;;;;;2.17;1.52;;;18.90;99.90;;;;;;6275481;22;20020;-43
2023/09/21 01:36:16;;;;;;;3.33;1.70;;;18.80;99.90;;;;;;6276364;22;20018;-43
2023/09/21 01:38:46;;;;;;;3.13;2.65;;;18.70;99.90;;;;;;6273714;22;20448;-43
2023/09/21 01:41:17;;;;;;;4.43;2.10;;;19.10;99.90;;;;;;6273923;22;20026;-43
2023/09/21 01:43:42;;;;;;;2.63;1.70;;;18.70;99.90;;;;;;6275180;22;20023;-43
2023/09/21 01:46:09;;;;;;;3.22;2.08;;;18.70;99.90;;;;;;6276130;22;20024;-45
2023/09/21 01:48:34;;;;;;;2.03;1.65;;;18.70;99.90;;;;;;6275943;22;20016;-43
2023/09/21 01:51:00;;;;;;;2.60;1.75;;;18.70;99.90;;;;;;6247484;22;20354;-45
2023/09/21 01:53:26;;;;;;;2.80;2.00;;;18.70;99.90;;;;;;6275605;22;20011;-44
2023/09/21 01:55:52;;;;;;;5.38;1.92;;;18.70;99.90;;;;;;6274229;22;20051;-44
2023/09/21 01:58:22;;;;;;;2.70;1.80;;;18.70;99.90;;;;;;6275360;22;20012;-43
2023/09/21 02:00:48;;;;;;;2.88;1.83;;;18.70;99.90;;;;;;6274771;22;20015;-44
2023/09/21 02:03:19;;;;;;;2.92;1.67;;;18.70;99.90;;;;;;6272318;22;20095;-43
2023/09/21 02:05:46;;;;;;;3.95;2.05;;;18.80;99.90;;;;;;6274441;22;20088;-43
2023/09/21 02:08:13;;;;;;;4.00;1.77;;;18.80;99.90;;;;;;6274661;22;20027;-43
2023/09/21 02:10:40;;;;;;;4.68;1.70;;;18.80;99.90;;;;;;6276679;22;20386;-47
2023/09/21 02:13:07;;;;;;;3.40;1.80;;;18.80;99.90;;;;;;6273500;22;20016;-45
2023/09/21 02:15:35;;;;;;;4.03;1.80;;;18.80;99.90;;;;;;6275982;22;20014;-43
2023/09/21 02:18:02;;;;;;;1.95;1.77;;;18.90;99.90;;;;;;6273425;22;20020;-44
2023/09/21 02:20:28;;;;;;;;;;;18.90;99.90;;;;;;6276188;22;20019;-42
2023/09/21 02:22:58;;;;;;;4.10;1.85;;;18.90;99.90;;;;;;6275217;22;20239;-43
2023/09/21 02:25:25;;;;;;;2.55;1.77;;;18.90;99.90;;;;;;6276099;22;20030;-46
2023/09/21 02:27:50;;;;;;;1.97;1.70;;;19.00;99.90;;;;;;6273835;22;20016;-42
2023/09/21 02:30:20;;;;;;;4.32;1.70;;;19.00;99.90;;;;;;6272456;22;20088;-43
2023/09/21 02:32:51;;;;;;;3.88;1.75;;;19.00;99.90;;;;;;6272864;22;20337;-44
2023/09/21 02:35:27;;;;;;;5.10;2.00;;;18.90;99.90;;;;;;6275424;22;20012;-42
2023/09/21 02:37:54;;;;;;;2.58;1.70;;;19.00;99.90;;;;;;6274159;22;20019;-44
2023/09/21 02:40:22;;;;;;;4.03;1.80;;;18.90;99.90;;;;;;6274369;22;20012;-43
2023/09/21 02:42:49;;;;;;;2.45;1.70;;;19.00;99.90;;;;;;6247783;22;20022;-44
2023/09/21 02:45:18;;;;;;;2.97;1.77;;;18.90;99.90;;;;;;6275387;22;20020;-44
2023/09/21 02:47:44;;;;;;;3.00;1.70;;;18.90;99.90;;;;;;6273576;22;20095;-42
2023/09/21 02:50:14;;;;;;;4.03;1.77;;;18.90;99.90;;;;;;6275305;22;20494;-43
2023/09/21 02:52:56;;;;;;;4.55;1.80;;;18.90;99.90;;;;;;6274502;22;20377;-43
2023/09/21 02:55:26;;;;;;;2.50;2.00;;;18.90;99.90;;;;;;6275990;22;20085;-43
2023/09/21 02:57:58;;;;;;;2.65;1.60;;;18.90;99.90;;;;;;6275026;22;20081;-42
2023/09/21 03:03:04;;;;;;;3.40;2.08;;;18.80;99.90;;;;;;6272415;22;20012;-44
2023/09/21 03:05:33;;;;;;;3.47;1.90;;;18.80;99.90;;;;;;6273554;22;20050;-43
2023/09/21 03:08:04;;;;;;;4.28;1.80;;;18.70;99.90;;;;;;6273335;22;20016;-45
2023/09/21 03:10:29;;;;;;;2.30;1.90;;;18.70;99.90;;;;;;6275522;22;20068;-44
2023/09/21 03:12:55;;;;;;;3.97;1.70;;;18.70;99.90;;;;;;6274884;22;20090;-42
2023/09/21 03:15:22;;;;;;;4.00;1.90;;;18.60;99.90;;;;;;6275575;22;20478;-44
2023/09/21 03:17:55;;;;;;;4.45;1.83;;;18.60;99.90;;;;;;6275156;22;20019;-44
2023/09/21 03:20:36;;;;;;;3.47;1.70;;;18.60;99.90;;;;;;6273898;22;20513;-43
2023/09/21 03:23:05;;;;;;;4.03;2.03;;;18.50;99.90;;;;;;6275355;22;20008;-43
2023/09/21 03:25:40;;;;;;;5.53;1.73;;;18.50;99.90;;;;;;6275072;22;20012;-42
2023/09/21 03:28:10;;;;;;;4.00;2.08;;;18.40;99.90;;;;;;6274929;22;20026;-47
2023/09/21 03:30:39;;;;;;;3.20;2.00;;;18.40;99.90;;;;;;6275010;22;20344;-43
2023/09/21 03:33:06;;;;;;;6.40;1.88;;;18.40;99.90;;;;;;6272911;22;20075;-43
2023/09/21 03:35:32;;;;;;;4.93;1.88;;;18.40;99.90;;;;;;6275159;22;20335;-43
2023/09/21 03:37:58;;;;;;;3.53;1.80;;;18.40;99.90;;;;;;6274946;22;20075;-43
2023/09/21 03:40:25;;;;;;;3.65;2.20;;;18.40;99.90;;;;;;6273630;22;20011;-43
2023/09/21 03:42:55;;;;;;;1.90;1.63;;;18.50;99.90;;;;;;6273090;22;20008;-42
2023/09/21 03:45:25;;;;;;;2.40;1.67;;;18.40;99.90;;;;;;6271056;22;20090;-44
2023/09/21 03:47:54;;;;;;;3.80;1.80;;;18.50;99.90;;;;;;6273124;22;20466;-43
2023/09/21 03:50:25;;;;;;;3.10;1.95;;;18.50;99.90;;;;;;6274525;22;20162;-43
2023/09/21 03:52:53;;;;;;;2.50;1.65;;;18.50;99.90;;;;;;6274856;22;20015;-43
2023/09/21 03:55:19;;;;;;;2.00;1.80;;;18.50;99.90;;;;;;6272678;22;20026;-43
2023/09/21 03:57:46;;;;;;;2.13;1.60;;;18.50;99.90;;;;;;6273988;22;20455;-44
2023/09/21 04:03:02;;;;;;;3.85;1.90;;;18.50;99.90;;;;;;6274398;22;20058;-44
2023/09/21 04:05:31;;;;;;;2.28;1.75;;;18.50;99.90;;;;;;6274561;22;20325;-42
2023/09/21 04:07:58;;;;;;;5.00;2.10;;;18.50;99.90;;;;;;6274416;22;20039;-43
2023/09/21 04:10:24;;;;;;;3.70;2.08;;;18.50;99.90;;;;;;6273230;22;20024;-43
2023/09/21 04:12:54;;;;;;;2.85;1.85;;;18.50;99.90;;;;;;6274396;22;20019;-43
2023/09/21 04:15:24;;;;;;;2.20;1.80;;;18.50;99.90;;;;;;6272992;22;20455;-45
2023/09/21 04:17:51;;;;;;;2.42;1.73;;;18.50;99.90;;;;;;6274618;22;20403;-43
2023/09/21 04:20:18;;;;;;;2.72;1.60;;;18.50;99.90;;;;;;6274955;22;20008;-42
2023/09/21 04:22:45;;;;;;;2.60;1.70;;;18.50;99.90;;;;;;6273163;22;20047;-44
2023/09/21 04:25:14;;;;;;;3.42;1.92;;;18.50;99.90;;;;;;6275247;22;20074;-45
2023/09/21 04:27:51;;;;;;;4.13;2.00;;;18.50;99.90;;;;;;6273061;22;20020;-44
2023/09/21 04:30:18;;;;;;;6.45;1.80;;;18.40;99.90;;;;;;6273028;22;20051;-43
2023/09/21 04:32:46;;;;;;;4.50;2.05;;;18.30;99.90;;;;;;6275049;22;20048;-43
2023/09/21 04:35:12;;;;;;;;;;;18.30;99.90;;;;;;6275189;22;20035;-44
2023/09/21 04:37:40;;;;;;;3.17;2.05;;;18.30;99.90;;;;;;6275062;22;20236;-43
2023/09/21 04:40:11;;;;;;;3.20;2.17;;;18.20;99.90;;;;;;6273065;22;20051;-43
2023/09/21 04:42:38;;;;;;;2.38;1.70;;;18.10;99.90;;;;;;6276199;22;20015;-43
2023/09/21 04:45:11;;;;;;;2.17;1.98;;;18.20;99.90;;;;;;6276742;22;20016;-43
2023/09/21 04:47:42;;;;;;;3.40;1.85;;;18.10;99.90;;;;;;6275333;22;20015;-43
2023/09/21 04:50:12;;;;;;;3.28;2.00;;;18.10;99.90;;;;;;6248954;22;20491;-44
2023/09/21 04:52:38;;;;;;;4.75;1.90;;;18.10;99.90;;;;;;6276930;22;20022;-43
2023/09/21 04:55:05;;;;;;;3.60;2.08;;;18.00;99.90;;;;;;6275040;22;20444;-43
2023/09/21 04:57:31;;;;;;;4.40;2.17;;;18.00;99.90;;;;;;6276840;22;20098;-43
2023/09/21 04:59:58;;;;;;;2.53;1.90;;;17.90;99.90;;;;;;6274926;22;20051;-43
2023/09/21 05:02:24;;;;;;;6.93;1.75;;;17.90;99.90;;;;;;6274828;22;20015;-43
2023/09/21 05:04:53;;;;;;;4.40;1.98;;;;;;;;;;6247245;22;20043;-42
2023/09/21 05:07:19;;;;;;;2.83;1.92;;;17.90;99.90;;;;;;6276228;22;20023;-44
2023/09/21 05:09:45;;;;;;;5.25;2.03;;;17.80;99.90;;;;;;6275715;22;20094;-43
2023/09/21 05:12:12;;;;;;;3.17;2.28;;;17.80;99.90;;;;;;6276500;22;20012;-43
2023/09/21 05:14:37;;;;;;;8.32;2.38;;;17.90;99.90;;;;;;6274609;22;20042;-46
2023/09/21 05:17:05;;;;;;;6.97;1.80;;;17.90;99.90;;;;;;6275527;22;20452;-42
2023/09/21 05:19:34;;;;;;;3.13;2.45;;;17.90;99.90;;;;;;6277011;22;20083;-42
2023/09/21 05:22:01;;;;;;;4.68;2.05;;;17.90;99.90;;;;;;6276410;22;20464;-44
2023/09/21 05:24:27;;;;;;;12.90;2.60;;;17.90;99.90;;;;;;6249208;22;20440;-44
2023/09/21 05:26:53;;;;;;;2.63;2.00;;;17.90;99.90;;;;;;6276418;22;20091;-42
2023/09/21 05:29:23;;;;;;;2.83;2.08;;;18.00;99.90;;;;;;6276649;22;20328;-43
2023/09/21 05:31:49;;;;;;;2.83;2.10;;;18.20;99.90;;;;;;6275049;22;20069;-42
2023/09/21 05:34:19;;;;;;;2.50;1.70;;;18.20;99.90;;;;;;6275384;22;20022;-43
2023/09/21 05:36:46;;;;;;;4.38;1.67;;;18.30;99.90;;;;;;6277030;22;20087;-43
2023/09/21 05:39:16;;;;;;;3.25;1.90;;;18.30;99.90;;;;;;6276855;22;20007;-42
2023/09/21 05:41:51;;;;;;;4.82;2.63;;;18.40;99.90;;;;;;6247216;22;20019;-42
2023/09/21 05:44:22;;;;;;;4.85;2.33;;;18.40;99.90;;;;;;6276653;22;20008;-43
2023/09/21 05:46:49;;;;;;;4.30;1.90;;;18.50;99.90;;;;;;6276323;22;20109;-43
2023/09/21 05:49:22;;;;;;;5.43;1.92;;;18.70;99.90;;;;;;6274415;22;20028;-43
2023/09/21 05:52:00;;;;;;;3.63;1.85;;;18.80;99.90;;;;;;6274508;22;20061;-44
2023/09/21 05:54:26;;;;;;;5.10;2.00;;;19.00;99.90;;;;;;6274603;22;20015;-43
2023/09/21 05:56:55;;;;;;;4.25;2.28;;;19.10;99.90;;;;;;6276179;22;20026;-43
2023/09/21 05:59:24;;;;;;;5.50;2.00;;;19.20;99.90;;;;;;6275726;22;20022;-45
2023/09/21 06:01:50;;;;;;;3.08;2.05;;;19.30;99.90;;;;;;6275347;22;20019;-43
2023/09/21 06:04:17;;;;;;;3.83;2.10;;;19.50;99.90;;;;;;6276735;22;20015;-42
2023/09/21 06:06:46;;;;;;;4.55;2.08;;;19.60;99.90;;;;;;6276804;22;20023;-43
2023/09/21 06:09:18;;;;;;;3.65;2.03;;;19.70;99.90;;;;;;6275715;22;20073;-42
2023/09/21 06:11:45;;;;;;;5.18;2.15;;;19.90;99.90;;;;;;6276781;22;20015;-44
2023/09/21 06:14:10;;;;;;;2.53;2.22;;;20.10;99.90;;;;;;6275828;22;20023;-43
2023/09/21 06:16:36;;;;;;;3.33;2.15;;;;;;;;;;6276435;22;20008;-43
2023/09/21 06:19:02;;;;;;;14.15;2.40;;;20.80;99.90;;;;;;6276218;22;20023;-43
2023/09/21 06:21:29;;;;;;;2.90;2.05;;;21.10;99.90;;;;;;6274147;22;20015;-45
2023/09/21 06:23:55;;;;;;;3.75;1.95;;;21.30;99.90;;;;;;6276077;22;20022;-44
2023/09/21 06:26:22;;;;;;;4.82;2.00;;;22.10;99.90;;;;;;6274874;22;20027;-43
2023/09/21 06:28:48;;;;;;;5.90;2.53;;;22.60;99.90;;;;;;6275538;22;20024;-45
2023/09/21 06:31:15;;;;;;;5.05;2.00;;;23.30;99.90;;;;;;6274877;22;20061;-47
2023/09/21 06:33:41;;;;;;;6.57;2.53;;;23.40;99.90;;;;;;6275370;22;20020;-43
2023/09/21 06:36:20;;;;;;;2.28;1.67;;;23.20;99.90;;;;;;6276133;22;20011;-46
2023/09/21 06:38:46;;;;;;;5.05;2.05;;;;;;;;;;6275830;22;20065;-43
2023/09/21 06:41:13;;;;;;;4.17;1.97;;;22.20;99.90;;;;;;6275924;22;20403;-43
2023/09/21 06:43:42;;;;;;;4.93;2.50;;;22.00;99.90;;;;;;6275506;22;20465;-45
2023/09/21 06:51:11;;;;;;;3.55;1.80;;;21.20;99.90;;;;;;6304502;22;20027;-49
2023/09/21 06:53:36;;;;;;;3.65;2.20;;;21.10;99.90;;;;;;6306689;22;20068;-45
2023/09/21 06:56:03;;;;;;;4.15;2.28;;;21.00;99.90;;;;;;6306163;22;20076;-46
2023/09/21 06:58:30;;;;;;;6.95;2.05;;;20.90;99.90;;;;;;6306773;22;20011;-47
2023/09/21 07:00:58;;;;;;;3.90;1.70;;;20.90;99.90;;;;;;6304320;22;20019;-48
2023/09/21 07:03:24;;;;;;;6.45;2.10;;;20.80;99.90;;;;;;6278243;22;20076;-45
2023/09/21 07:05:50;;;;;;;3.38;2.10;;;20.70;99.90;;;;;;6305375;22;20012;-45
2023/09/21 07:08:20;;;;;;;5.50;2.00;;;;;;;;;;6305808;22;20015;-46
2023/09/21 07:10:48;;;;;;;4.78;2.10;;;;;;;;;;6306519;22;20026;-47
2023/09/21 07:13:14;;;;;;;2.75;2.05;;;;;;;;;;6279234;22;20012;-47
2023/09/21 07:15:41;;;;;;;4.28;2.00;;;;;;;;;;6277600;22;20015;-50
2023/09/21 07:18:08;;;;;;;3.60;2.10;;;;;;;;;;6306444;22;20022;-47
2023/09/21 07:20:34;;;;;;;3.80;1.92;;;;;;;;;;6308987;22;20058;-48
2023/09/21 07:23:01;;;;;;;3.20;1.90;;;;;;;;;;6307017;22;20443;-44
2023/09/21 07:25:28;;;;;;;2.40;2.20;;;;;;;;;;6281023;22;20019;-47
2023/09/21 07:27:54;;;;;;;5.47;2.28;;;;;;;;;;6304948;22;20073;-45
2023/09/21 07:30:25;;;;;;;5.40;1.83;;;;;;;;;;6306222;22;20102;-45
2023/09/21 07:32:51;;;;;;;5.00;2.10;;;;;;;;;;6305995;22;20019;-47
2023/09/21 07:35:21;;;;;;;3.42;2.30;;;;;;;;;;6307073;22;20011;-48
2023/09/21 07:37:49;;;;;;;2.60;1.90;;;;;;;;;;6306232;22;20019;-49
2023/09/21 07:40:16;;;;;;;4.60;2.22;;;;;;;;;;6278594;22;20461;-46
2023/09/21 07:42:48;;;;;;;2.40;2.10;;;;;;;;;;6306510;22;20027;-48
2023/09/21 07:45:15;;;;;;;3.80;2.40;;;;;;;;;;6279657;22;20323;-46
2023/09/21 07:47:41;;;;;;;6.15;2.38;;;;;;;;;;6306346;22;20060;-49
2023/09/21 07:50:07;;;;;;;4.22;2.45;;;;;;;;;;6305723;22;20076;-46
2023/09/21 07:52:34;;;;;;;6.50;2.47;;;;;;;;;;6305846;22;20084;-47
2023/09/21 07:55:02;;;;;;;4.18;2.30;;;21.10;99.90;;;;;;6306185;22;20015;-46
2023/09/21 07:57:32;;;;;;;5.32;2.10;;;21.10;99.90;;;;;;6305380;22;20351;-46
2023/09/21 07:59:58;;;;;;;4.00;2.30;;;21.10;99.90;;;;;;6277326;22;20054;-47
2023/09/21 08:02:25;;;;;;;3.47;2.00;;;21.10;99.90;;;;;;6303257;22;20474;-49
2023/09/21 08:04:50;;;;;;;7.55;3.03;;;21.00;99.90;;;;;;6305838;22;20015;-47
2023/09/21 08:07:23;;;;;;;3.55;2.00;;;20.80;99.90;;;;;;6305421;22;20085;-46
2023/09/21 08:09:49;;;;;;;3.47;2.10;;;20.80;99.90;;;;;;6305305;22;20435;-45
2023/09/21 08:12:15;;;;;;;5.55;2.35;;;20.70;99.90;;;;;;6306171;22;20095;-46
2023/09/21 08:14:43;;;;;;;4.28;2.33;;;20.70;99.90;;;;;;6305666;22;20015;-44
2023/09/21 08:17:10;;;;;;;3.65;2.30;;;20.60;99.90;;;;;;6305430;22;20015;-46
2023/09/21 08:19:37;;;;;;;4.47;2.80;;;20.50;99.90;;;;;;6252055;22;20023;-47
2023/09/21 08:22:02;;;;;;;4.90;2.10;;;20.50;99.90;;;;;;6306229;22;20092;-46
2023/09/21 08:24:28;;;;;;;7.95;2.50;;;20.40;99.90;;;;;;6304907;22;20238;-45
2023/09/21 08:26:54;;;;;;;5.15;2.72;;;20.30;99.90;;;;;;6305495;22;20030;-48
2023/09/21 08:29:21;;;;;;;4.13;2.38;;;20.20;99.90;;;;;;6304580;22;20098;-46
2023/09/21 08:31:47;;;;;;;4.55;2.65;;;20.10;99.90;;;;;;6250955;22;20019;-48
2023/09/21 08:34:13;;;;;;;3.53;2.50;;;20.10;99.90;;;;;;6305413;22;20120;-47
2023/09/21 08:36:40;;;;;;;4.60;2.47;;;20.00;99.90;;;;;;6305445;22;20012;-48
2023/09/21 08:39:06;;;;;;;4.88;2.38;;;20.00;99.90;;;;;;6278155;22;20080;-45
2023/09/21 08:41:35;;;;;;;2.50;2.30;;;20.00;99.90;;;;;;6305707;22;20011;-46
2023/09/21 08:44:03;;;;;;;2.85;2.50;;;20.00;99.90;;;;;;6304107;22;20019;-48
2023/09/21 08:46:28;;;;;;;4.75;2.38;;;20.00;99.90;;;;;;6302240;22;20015;-46
2023/09/21 08:48:58;;;;;;;3.22;2.47;;;20.00;99.90;;;;;;6303435;22;20066;-48
2023/09/21 08:51:24;;;;;;;3.50;2.28;;;19.90;99.90;;;;;;6304846;22;20295;-45
2023/09/21 08:53:51;;;;;;;5.30;2.63;;;19.90;99.90;;;;;;6304628;22;20430;-50
2023/09/21 08:56:20;;;;;;;4.90;2.60;;;19.90;99.90;;;;;;6303098;22;20027;-48
2023/09/21 08:58:51;;;;;;;3.33;2.03;;;19.80;99.90;;;;;;6304636;22;20023;-47
2023/09/21 09:01:17;;;;;;;4.35;2.00;;;19.70;99.90;;;;;;6304733;22;20019;-44
2023/09/21 09:03:43;;;;;;;3.60;2.30;;;19.70;99.90;;;;;;6304591;22;20015;-45
2023/09/21 09:06:09;;;;;;;6.20;2.42;;;19.70;99.90;;;;;;6304426;22;20011;-46
2023/09/21 09:08:35;;;;;;;3.35;2.30;;;19.60;99.90;;;;;;6278089;22;20026;-46
2023/09/21 09:11:00;;;;;;;4.93;2.28;;;19.50;99.90;;;;;;6304889;22;20022;-50
2023/09/21 09:13:33;;;;;;;5.15;2.75;;;19.50;99.90;;;;;;6305487;22;20086;-45
2023/09/21 09:16:03;;;;;;;3.55;2.22;;;19.40;99.90;;;;;;6304755;22;20050;-44
2023/09/21 09:18:29;;;;;;;3.35;2.50;;;19.40;99.90;;;;;;6305057;22;20048;-48
2023/09/21 09:20:55;;;;;;;3.40;2.47;;;19.30;99.90;;;;;;6277772;22;20019;-45
2023/09/21 09:23:21;;;;;;;4.22;2.25;;;19.30;99.90;;;;;;6277412;22;20026;-46
2023/09/21 09:25:51;;;;;;;3.08;2.70;;;19.10;99.90;;;;;;6305023;22;20019;-46
2023/09/21 09:28:17;;;;;;;5.35;2.88;;;19.20;99.90;;;;;;6303805;22;20018;-44
2023/09/21 09:30:44;;;;;;;5.32;3.17;;;19.10;99.90;;;;;;6307052;22;20012;-46
2023/09/21 09:33:12;;;;;;;4.35;2.38;;;19.10;99.90;;;;;;6305837;22;20018;-45
2023/09/21 09:35:41;;;;;;;3.80;2.63;;;19.20;99.90;;;;;;6305168;22;20086;-47
2023/09/21 09:38:10;;;;;;;5.45;2.60;;;19.20;99.90;;;;;;6307141;22;20019;-48
2023/09/21 09:40:37;;;;;;;5.40;3.00;;;19.10;99.90;;;;;;6307448;22;20027;-49
2023/09/21 09:43:05;;;;;;;7.57;3.00;;;19.10;99.90;;;;;;6278853;22;20019;-46
2023/09/21 09:45:31;;;;;;;4.18;2.67;;;19.00;99.90;;;;;;6306003;22;20493;-47
2023/09/21 09:48:03;;;;;;;5.70;2.90;;;19.00;99.90;;;;;;6304863;22;20007;-46
2023/09/21 09:50:36;;;;;;;6.43;3.63;;;19.00;99.90;;;;;;6306609;22;20023;-47
2023/09/21 09:53:07;;;;;;;4.82;2.95;;;19.20;99.90;;;;;;6307097;22;20057;-49
2023/09/21 09:55:35;;;;;;;6.28;2.90;;;19.00;99.90;;;;;;6307244;22;20064;-46
2023/09/21 09:58:08;;;;;;;4.00;2.70;;;18.90;99.90;;;;;;6307692;22;20320;-45
2023/09/21 10:00:39;;;;;;;4.72;3.13;;;18.90;99.90;;;;;;6307151;22;20023;-93
2023/09/21 10:03:09;;;;;;;4.32;3.08;;;;;;;;;;6258731;22;20443;-93
2023/09/21 10:05:39;;;;;;;3.80;2.63;;;18.60;99.90;;;;;;6280036;22;20015;-90
2023/09/21 10:08:07;;;;;;;3.70;2.97;;;;;;;;;;6279734;22;20061;-90
2023/09/21 10:10:44;;;;;;;4.40;2.65;;;;;;;;;;6251031;22;20445;-89
2023/09/21 10:13:10;;;;;;;5.80;3.20;;;;;;;;;;6282311;22;20011;-92
2023/09/21 10:15:36;;;;;;;3.90;2.97;;;18.50;99.90;;;;;;6266650;22;20015;-96
2023/09/21 10:18:02;;;;;;;5.25;3.03;;;18.50;99.90;;;;;;6265262;22;20023;-95
2023/09/21 10:20:32;;;;;;;3.50;2.95;;;18.50;99.90;;;;;;6256405;22;20064;-93
2023/09/21 10:23:01;;;;;;;7.22;3.55;;;18.60;99.90;;;;;;6254343;22;20030;-94
2023/09/21 10:25:47;;;;;;;6.65;3.20;;;18.60;99.90;;;;;;6280875;22;20042;-94
2023/09/21 10:28:35;;;;;;;5.72;3.25;;;18.60;99.90;;;;;;6259801;22;20015;-93
2023/09/21 10:31:06;;;;;;;4.63;3.38;;;18.60;99.90;;;;;;6257555;22;20011;-95
2023/09/21 10:34:04;;;;;;;6.60;3.80;;;18.60;99.90;;;;;;6290049;22;20317;-95
2023/09/21 10:36:31;;;;;;;6.20;3.80;;;18.50;99.90;;;;;;6255145;22;20022;-94
2023/09/21 10:39:06;;;;;;;4.97;3.72;;;18.60;99.90;;;;;;6254629;22;20195;-93
2023/09/21 10:41:35;;;;;;;4.85;3.67;;;18.70;99.90;;;;;;6279984;22;20015;-95
2023/09/21 10:44:07;;;;;;;4.82;3.53;;;18.70;99.90;;;;;;6256486;22;20021;-91
2023/09/21 10:46:39;;;;;;;4.57;3.80;;;18.60;99.90;;;;;;6253762;22;20015;-96
2023/09/21 10:49:13;;;;;;;4.30;3.70;;;18.70;99.90;;;;;;6280797;22;20021;-96
2023/09/21 10:51:39;;;;;;;5.05;3.92;;;18.70;99.90;;;;;;6255607;22;20460;-95
2023/09/21 10:54:06;;;;;;;6.70;4.05;;;18.70;99.90;;;;;;6279469;22;20011;-94
2023/09/21 10:56:33;;;;;;;4.35;3.85;;;18.80;99.90;;;;;;6279477;22;20064;-94
2023/09/21 10:59:00;;;;;;;6.57;3.88;;;;;;;;;;6278949;22;20033;-94
2023/09/21 11:01:26;;;;;;;4.57;3.53;;;19.00;99.90;;;;;;6280519;22;20064;-94
2023/09/21 11:03:53;;;;;;;4.47;3.50;;;18.80;99.90;;;;;;6279410;22;20142;-94
2023/09/21 11:06:19;;;;;;;6.05;3.78;;;;;;;;;;6253439;22;20487;-94
2023/09/21 11:08:46;;;;;;;4.88;3.50;;;;;;;;;;6253913;22;20015;-94
2023/09/21 11:11:12;;;;;;;6.75;3.50;;;19.10;99.90;;;;;;6253761;22;20018;-95
2023/09/21 11:13:42;;;;;;;4.88;3.75;;;19.00;99.90;;;;;;6278703;22;20015;-94
2023/09/21 11:16:09;;;;;;;4.50;3.53;;;19.00;99.90;;;;;;6255164;22;20012;-93
2023/09/21 11:18:38;;;;;;;4.80;3.88;;;19.00;99.90;;;;;;6253671;22;20448;-94
2023/09/21 11:21:03;;;;;;;6.20;3.45;;;19.00;99.90;;;;;;6279865;22;20007;-93
2023/09/21 11:23:32;;;;;;;3.80;3.50;;;18.90;99.90;;;;;;6279746;22;20103;-94
2023/09/21 11:26:02;;;;;;;4.15;3.13;;;18.80;99.90;;;;;;6281683;22;20090;-93
2023/09/21 11:28:28;;;;;;;3.10;2.65;;;18.80;99.90;;;;;;6279056;22;20018;-94
2023/09/21 11:30:56;;;;;;;2.30;2.10;;;18.60;99.90;;;;;;6254279;22;20015;-94
2023/09/21 11:33:22;;;;;;;2.30;1.80;;;18.70;99.90;;;;;;6253081;22;20007;-93
2023/09/21 11:35:48;;;;;;;2.42;1.73;;;18.40;99.90;;;;;;6253510;22;20015;-94
2023/09/21 11:38:25;;;;;;;2.25;1.67;;;18.30;99.90;;;;;;6253078;22;20043;-92
2023/09/21 11:40:53;;;;;;;1.98;1.60;;;18.30;99.90;;;;;;6259370;22;20065;-96
2023/09/21 11:43:20;;;;;;;1.92;1.73;;;18.30;99.90;;;;;;6264543;22;20073;-96
2023/09/21 11:45:47;;;;;;;2.50;2.13;;;18.40;99.90;;;;;;6254884;22;20475;-95
2023/09/21 11:48:12;;;;;;;3.37;2.00;;;18.50;99.90;;;;;;6277848;22;20011;-94
2023/09/21 11:50:41;;;;;;;2.33;1.70;;;18.70;99.90;;;;;;6251260;22;20043;-95
2023/09/21 11:53:07;;;;;;;2.55;2.13;;;18.50;99.90;;;;;;6255613;22;20027;-95
2023/09/21 11:55:33;;;;;;;2.10;1.90;;;18.50;99.90;;;;;;6275001;22;20045;-93
2023/09/21 11:58:15;;;;;;;2.00;1.65;;;18.70;99.90;;;;;;6261540;22;20007;-95
2023/09/21 12:00:43;;;;;;;2.15;1.70;;;18.90;99.90;;;;;;6251881;22;20093;-94
2023/09/21 12:03:17;;;;;;;3.25;1.90;;;19.00;99.90;;;;;;6277103;22;20064;-95
2023/09/21 12:05:43;;;;;;;3.08;1.80;;;19.20;99.90;;;;;;6279050;22;20018;-94
2023/09/21 12:08:11;;;;;;;4.55;2.00;;;19.20;99.90;;;;;;6278506;22;20033;-94
2023/09/21 12:10:37;;;;;;;1.90;1.80;;;19.30;99.90;;;;;;6282826;22;20026;-96
2023/09/21 12:13:03;;;;;;;3.63;1.83;;;19.60;99.90;;;;;;6259901;22;20018;-94
2023/09/21 12:15:29;;;;;;;3.63;1.85;;;19.80;99.90;;;;;;6286113;22;20011;-93
2023/09/21 12:17:55;;;;;;;4.28;2.00;;;20.00;99.90;;;;;;6278202;22;20014;-93
2023/09/21 12:20:21;;;;;;;2.28;1.80;;;19.90;99.90;;;;;;6279697;22;20011;-92
2023/09/21 12:22:47;;;;;;;2.78;2.00;;;19.80;99.90;;;;;;6276822;22;20098;-94
2023/09/21 12:25:14;;;;;;;2.05;1.80;;;20.00;99.90;;;;;;6254589;22;20034;-96
2023/09/21 12:27:42;;;;;;;1.88;1.73;;;19.90;99.90;;;;;;6282066;22;20015;-95
2023/09/21 12:30:14;;;;;;;3.08;1.50;;;20.00;99.90;;;;;;6257260;22;20011;-90
2023/09/21 12:32:40;;;;;;;2.25;1.40;;;19.70;99.90;;;;;;6251026;22;20012;-92
2023/09/21 12:35:10;;;;;;;1.88;1.60;;;19.40;99.90;;;;;;6249920;22;20101;-93
2023/09/21 12:37:38;;;;;;;1.95;1.20;;;19.10;99.90;;;;;;6274684;22;20069;-92
2023/09/21 12:40:11;;;;;;;2.97;1.40;;;18.90;99.90;;;;;;6290613;22;20011;-96
2023/09/21 12:42:38;;;;;;;2.67;1.20;;;18.70;99.90;;;;;;6280293;22;20066;-95
2023/09/21 12:45:05;;;;;;;3.55;1.02;;;18.50;99.90;;;;;;6275901;22;20007;-93
2023/09/21 12:47:31;;;;;;;2.50;1.10;;;18.40;99.90;;;;;;6276495;22;20076;-93
2023/09/21 12:49:57;;;;;;;1.77;0.90;;;18.30;99.90;;;;;;6276504;22;20246;-93
2023/09/21 12:52:23;;;;;;;1.75;0.93;;;18.20;99.90;;;;;;6250521;22;20072;-93
2023/09/21 12:54:49;;;;;;;2.15;1.00;;;18.00;99.90;;;;;;6250730;22;20142;-94
2023/09/21 12:57:15;;;;;;;1.77;0.80;;;18.00;99.90;;;;;;6276554;22;20008;-94
2023/09/21 12:59:41;;;;;;;3.10;1.53;;;18.10;99.90;;;;;;6276984;22;20089;-94
2023/09/21 13:02:09;;;;;;;2.55;1.25;;;18.00;99.90;;;;;;6276064;22;20074;-93
2023/09/21 13:04:35;;;;;;;2.90;1.25;;;18.00;99.90;;;;;;6253235;22;20015;-94
2023/09/21 13:07:02;;;;;;;1.95;1.20;;;18.10;99.90;;;;;;6253443;22;20011;-94
2023/09/21 13:09:28;;;;;;;1.25;1.00;;;18.30;99.90;;;;;;6255669;22;20015;-94
2023/09/21 13:11:54;;;;;;;1.15;1.00;;;18.40;99.90;;;;;;6284381;22;20076;-95